الصفحة الرئيسية
METAR-TAF:

METAR-TAF

مطار :

Whale Cove, نونافوت, كندا

دائرة عرض: 62-14N, خط طول: 092-36W, ارتفاع: 20 متر

مراقبة الطقس الحالي

تاريخ ووقت الإصدار 1ساعة و 13 دقيقة قبل الساعة 16:00UTC
ريح 11 عقدة من الشمال الشرقي تتزايد حتى 16 عقدة
درجة الحرارة 11°درجة مئوية
الرطوبة 54%
ضغط 1011 hPa
الرؤية: 24.1 كم
غيوم قليلة على ارتفاع 2200 قدم

METAR: CYXN 151600Z 04011G16KT 15SM FEW022 11/02 A2984 RMK CU2 SLP108

زمن: 12:13 (17:13 UTC)


TAF: مفقودة

أرصاد الطقس والتوقعات من أكثر من 4000 مطار (تقارير الطقس للمطار METAR والتنبؤ بالطقس بالمطارTAF).

المحطات المتاحة هي النقط الصفراء والحمراء على الخريطة.

حرك المؤشر فوق النقطة لمعرفة اسم المحطة.

ثم انقر لمعرفة أرصاد وتوقعات الطقس.

لتغيير الخارطة: اضغط على الأزرار الخضراء مع رمز الصليب الأسود للتكبير. على الزر الأخضر مع شرطة للتصغير، أو على الأسهم الخضراء للخرائط المجاورة.


METAR-TAF: